sensor_id;sensor_type;location;lat;lon;timestamp;P1;durP1;ratioP1;P2;durP2;ratioP2
18146;SDS011;9199;48.832;9.182;2023-06-26T00:00:47;13.17;;;7.87;;
18146;SDS011;9199;48.832;9.182;2023-06-26T00:03:14;15.43;;;7.97;;
18146;SDS011;9199;48.832;9.182;2023-06-26T00:05:40;15.93;;;8.50;;
18146;SDS011;9199;48.832;9.182;2023-06-26T00:08:07;14.90;;;9.07;;
18146;SDS011;9199;48.832;9.182;2023-06-26T00:10:34;13.00;;;7.30;;
18146;SDS011;9199;48.832;9.182;2023-06-26T00:13:02;13.93;;;7.80;;
18146;SDS011;9199;48.832;9.182;2023-06-26T00:15:29;13.43;;;8.32;;
18146;SDS011;9199;48.832;9.182;2023-06-26T00:17:58;13.25;;;7.25;;
18146;SDS011;9199;48.832;9.182;2023-06-26T00:20:25;12.05;;;7.80;;
18146;SDS011;9199;48.832;9.182;2023-06-26T00:22:52;12.95;;;7.88;;
18146;SDS011;9199;48.832;9.182;2023-06-26T00:25:19;12.77;;;7.73;;
18146;SDS011;9199;48.832;9.182;2023-06-26T00:27:46;13.20;;;8.18;;
18146;SDS011;9199;48.832;9.182;2023-06-26T00:30:14;11.85;;;7.57;;
18146;SDS011;9199;48.832;9.182;2023-06-26T00:32:41;13.38;;;8.02;;
18146;SDS011;9199;48.832;9.182;2023-06-26T00:35:07;13.45;;;7.82;;
18146;SDS011;9199;48.832;9.182;2023-06-26T00:37:34;13.40;;;7.20;;
18146;SDS011;9199;48.832;9.182;2023-06-26T00:40:01;12.52;;;7.50;;
18146;SDS011;9199;48.832;9.182;2023-06-26T00:42:32;11.60;;;7.80;;
18146;SDS011;9199;48.832;9.182;2023-06-26T00:44:58;11.93;;;7.68;;
18146;SDS011;9199;48.832;9.182;2023-06-26T00:47:26;11.52;;;7.20;;
18146;SDS011;9199;48.832;9.182;2023-06-26T00:49:54;11.87;;;7.43;;
18146;SDS011;9199;48.832;9.182;2023-06-26T00:52:22;13.68;;;7.90;;
18146;SDS011;9199;48.832;9.182;2023-06-26T00:54:49;12.70;;;7.68;;
18146;SDS011;9199;48.832;9.182;2023-06-26T00:57:16;13.38;;;8.02;;
18146;SDS011;9199;48.832;9.182;2023-06-26T00:59:44;12.27;;;7.97;;
18146;SDS011;9199;48.832;9.182;2023-06-26T01:02:10;13.03;;;7.97;;
18146;SDS011;9199;48.832;9.182;2023-06-26T01:04:38;12.85;;;7.90;;
18146;SDS011;9199;48.832;9.182;2023-06-26T01:07:11;12.38;;;7.45;;
18146;SDS011;9199;48.832;9.182;2023-06-26T01:09:38;12.25;;;7.50;;
18146;SDS011;9199;48.832;9.182;2023-06-26T01:12:06;13.13;;;7.50;;
18146;SDS011;9199;48.832;9.182;2023-06-26T01:14:33;12.63;;;7.90;;
18146;SDS011;9199;48.832;9.182;2023-06-26T01:17:01;17.40;;;8.02;;
18146;SDS011;9199;48.832;9.182;2023-06-26T01:19:29;13.23;;;7.55;;
18146;SDS011;9199;48.832;9.182;2023-06-26T01:22:02;13.07;;;8.07;;
18146;SDS011;9199;48.832;9.182;2023-06-26T01:24:41;11.65;;;7.10;;
18146;SDS011;9199;48.832;9.182;2023-06-26T01:27:18;13.20;;;8.00;;
18146;SDS011;9199;48.832;9.182;2023-06-26T01:29:48;13.68;;;7.57;;
18146;SDS011;9199;48.832;9.182;2023-06-26T01:32:16;13.10;;;7.88;;
18146;SDS011;9199;48.832;9.182;2023-06-26T01:34:43;12.57;;;7.55;;
18146;SDS011;9199;48.832;9.182;2023-06-26T01:37:11;13.73;;;8.07;;
18146;SDS011;9199;48.832;9.182;2023-06-26T01:39:38;11.77;;;7.50;;
18146;SDS011;9199;48.832;9.182;2023-06-26T01:42:05;13.15;;;7.45;;
18146;SDS011;9199;48.832;9.182;2023-06-26T01:44:35;13.18;;;7.90;;
18146;SDS011;9199;48.832;9.182;2023-06-26T01:47:06;11.93;;;7.40;;
18146;SDS011;9199;48.832;9.182;2023-06-26T01:49:38;12.50;;;7.95;;
18146;SDS011;9199;48.832;9.182;2023-06-26T01:52:12;12.63;;;8.00;;
18146;SDS011;9199;48.832;9.182;2023-06-26T01:54:45;14.30;;;8.25;;
18146;SDS011;9199;48.832;9.182;2023-06-26T01:57:17;16.05;;;8.07;;
18146;SDS011;9199;48.832;9.182;2023-06-26T01:59:49;12.60;;;7.95;;
18146;SDS011;9199;48.832;9.182;2023-06-26T02:02:17;12.10;;;8.15;;
18146;SDS011;9199;48.832;9.182;2023-06-26T02:04:44;12.00;;;7.37;;
18146;SDS011;9199;48.832;9.182;2023-06-26T02:07:13;11.90;;;7.72;;
18146;SDS011;9199;48.832;9.182;2023-06-26T02:09:40;10.93;;;7.03;;
18146;SDS011;9199;48.832;9.182;2023-06-26T02:12:08;13.15;;;7.90;;
18146;SDS011;9199;48.832;9.182;2023-06-26T02:14:35;11.90;;;7.28;;
18146;SDS011;9199;48.832;9.182;2023-06-26T02:17:03;10.97;;;7.10;;
18146;SDS011;9199;48.832;9.182;2023-06-26T02:19:30;14.55;;;7.97;;
18146;SDS011;9199;48.832;9.182;2023-06-26T02:21:57;11.63;;;7.68;;
18146;SDS011;9199;48.832;9.182;2023-06-26T02:24:23;10.90;;;7.28;;
18146;SDS011;9199;48.832;9.182;2023-06-26T02:26:52;11.55;;;7.80;;
18146;SDS011;9199;48.832;9.182;2023-06-26T02:29:19;11.50;;;6.90;;
18146;SDS011;9199;48.832;9.182;2023-06-26T02:31:45;11.63;;;7.15;;
18146;SDS011;9199;48.832;9.182;2023-06-26T02:34:14;12.27;;;7.03;;
18146;SDS011;9199;48.832;9.182;2023-06-26T02:36:41;11.30;;;6.85;;
18146;SDS011;9199;48.832;9.182;2023-06-26T02:39:08;11.60;;;6.47;;
18146;SDS011;9199;48.832;9.182;2023-06-26T02:41:34;10.10;;;6.60;;
18146;SDS011;9199;48.832;9.182;2023-06-26T02:44:01;10.27;;;6.63;;
18146;SDS011;9199;48.832;9.182;2023-06-26T02:46:28;10.68;;;6.65;;
18146;SDS011;9199;48.832;9.182;2023-06-26T02:48:55;10.43;;;6.85;;
18146;SDS011;9199;48.832;9.182;2023-06-26T02:51:23;12.02;;;7.13;;
18146;SDS011;9199;48.832;9.182;2023-06-26T02:53:50;11.33;;;6.63;;
18146;SDS011;9199;48.832;9.182;2023-06-26T02:56:16;10.88;;;6.88;;
18146;SDS011;9199;48.832;9.182;2023-06-26T02:58:43;10.38;;;6.45;;
18146;SDS011;9199;48.832;9.182;2023-06-26T03:01:09;11.10;;;6.95;;
18146;SDS011;9199;48.832;9.182;2023-06-26T03:03:36;12.20;;;7.55;;
18146;SDS011;9199;48.832;9.182;2023-06-26T03:06:06;11.03;;;7.37;;
18146;SDS011;9199;48.832;9.182;2023-06-26T03:08:36;12.10;;;7.80;;
18146;SDS011;9199;48.832;9.182;2023-06-26T03:11:04;12.55;;;7.60;;
18146;SDS011;9199;48.832;9.182;2023-06-26T03:13:31;12.75;;;8.00;;
18146;SDS011;9199;48.832;9.182;2023-06-26T03:15:58;13.70;;;8.07;;
18146;SDS011;9199;48.832;9.182;2023-06-26T03:18:25;13.93;;;8.37;;
18146;SDS011;9199;48.832;9.182;2023-06-26T03:20:51;12.60;;;7.68;;
18146;SDS011;9199;48.832;9.182;2023-06-26T03:23:19;12.70;;;7.78;;
18146;SDS011;9199;48.832;9.182;2023-06-26T03:25:48;11.93;;;8.20;;
18146;SDS011;9199;48.832;9.182;2023-06-26T03:28:14;12.90;;;7.60;;
18146;SDS011;9199;48.832;9.182;2023-06-26T03:30:41;13.97;;;7.57;;
18146;SDS011;9199;48.832;9.182;2023-06-26T03:33:08;13.27;;;7.82;;
18146;SDS011;9199;48.832;9.182;2023-06-26T03:35:34;13.80;;;7.85;;
18146;SDS011;9199;48.832;9.182;2023-06-26T03:38:01;13.32;;;8.23;;
18146;SDS011;9199;48.832;9.182;2023-06-26T03:40:29;13.43;;;8.18;;
18146;SDS011;9199;48.832;9.182;2023-06-26T03:42:57;12.37;;;7.60;;
18146;SDS011;9199;48.832;9.182;2023-06-26T03:45:24;13.23;;;7.93;;
18146;SDS011;9199;48.832;9.182;2023-06-26T03:47:50;14.02;;;7.97;;
18146;SDS011;9199;48.832;9.182;2023-06-26T03:50:17;13.23;;;7.95;;
18146;SDS011;9199;48.832;9.182;2023-06-26T03:52:44;13.57;;;8.23;;
18146;SDS011;9199;48.832;9.182;2023-06-26T03:55:11;12.10;;;7.03;;
18146;SDS011;9199;48.832;9.182;2023-06-26T03:57:38;16.67;;;8.35;;
18146;SDS011;9199;48.832;9.182;2023-06-26T04:00:07;15.30;;;8.70;;
18146;SDS011;9199;48.832;9.182;2023-06-26T04:02:36;14.18;;;8.35;;
18146;SDS011;9199;48.832;9.182;2023-06-26T04:05:03;13.50;;;7.97;;
18146;SDS011;9199;48.832;9.182;2023-06-26T04:07:30;13.50;;;8.20;;
18146;SDS011;9199;48.832;9.182;2023-06-26T04:09:57;11.55;;;6.57;;
18146;SDS011;9199;48.832;9.182;2023-06-26T04:12:24;12.55;;;7.38;;
18146;SDS011;9199;48.832;9.182;2023-06-26T04:14:51;13.07;;;7.72;;
18146;SDS011;9199;48.832;9.182;2023-06-26T04:17:19;14.65;;;8.65;;
18146;SDS011;9199;48.832;9.182;2023-06-26T04:19:46;12.87;;;7.97;;
18146;SDS011;9199;48.832;9.182;2023-06-26T04:22:13;13.70;;;8.02;;
18146;SDS011;9199;48.832;9.182;2023-06-26T04:24:40;13.40;;;8.48;;
18146;SDS011;9199;48.832;9.182;2023-06-26T04:27:06;13.93;;;8.02;;
18146;SDS011;9199;48.832;9.182;2023-06-26T04:29:33;12.90;;;7.93;;
18146;SDS011;9199;48.832;9.182;2023-06-26T04:32:00;13.20;;;8.50;;
18146;SDS011;9199;48.832;9.182;2023-06-26T04:34:28;14.27;;;7.78;;
18146;SDS011;9199;48.832;9.182;2023-06-26T04:36:57;13.27;;;7.72;;
18146;SDS011;9199;48.832;9.182;2023-06-26T04:39:24;13.10;;;8.18;;
18146;SDS011;9199;48.832;9.182;2023-06-26T04:41:51;12.38;;;7.93;;
18146;SDS011;9199;48.832;9.182;2023-06-26T04:44:18;13.17;;;8.17;;
18146;SDS011;9199;48.832;9.182;2023-06-26T04:46:44;12.88;;;7.50;;
18146;SDS011;9199;48.832;9.182;2023-06-26T04:49:11;17.98;;;8.35;;
18146;SDS011;9199;48.832;9.182;2023-06-26T04:51:39;12.57;;;8.50;;
18146;SDS011;9199;48.832;9.182;2023-06-26T04:54:06;13.52;;;7.88;;
18146;SDS011;9199;48.832;9.182;2023-06-26T04:56:33;12.97;;;8.57;;
18146;SDS011;9199;48.832;9.182;2023-06-26T04:59:00;13.82;;;7.80;;
18146;SDS011;9199;48.832;9.182;2023-06-26T05:01:26;12.68;;;7.47;;
18146;SDS011;9199;48.832;9.182;2023-06-26T05:03:54;11.00;;;7.55;;
18146;SDS011;9199;48.832;9.182;2023-06-26T05:06:21;12.75;;;7.68;;
18146;SDS011;9199;48.832;9.182;2023-06-26T05:08:49;13.40;;;7.57;;
18146;SDS011;9199;48.832;9.182;2023-06-26T05:11:16;14.15;;;8.73;;
18146;SDS011;9199;48.832;9.182;2023-06-26T05:13:42;13.30;;;7.82;;
18146;SDS011;9199;48.832;9.182;2023-06-26T05:16:09;12.23;;;7.80;;
18146;SDS011;9199;48.832;9.182;2023-06-26T05:18:36;14.85;;;8.30;;
18146;SDS011;9199;48.832;9.182;2023-06-26T05:21:03;13.27;;;8.37;;
18146;SDS011;9199;48.832;9.182;2023-06-26T05:23:30;14.38;;;8.00;;
18146;SDS011;9199;48.832;9.182;2023-06-26T05:25:59;12.98;;;7.97;;
18146;SDS011;9199;48.832;9.182;2023-06-26T05:28:28;15.60;;;7.10;;
18146;SDS011;9199;48.832;9.182;2023-06-26T05:30:56;11.73;;;7.05;;
18146;SDS011;9199;48.832;9.182;2023-06-26T05:33:24;10.20;;;6.53;;
18146;SDS011;9199;48.832;9.182;2023-06-26T05:35:52;12.27;;;7.38;;
18146;SDS011;9199;48.832;9.182;2023-06-26T05:38:20;10.95;;;6.90;;
18146;SDS011;9199;48.832;9.182;2023-06-26T05:40:47;11.70;;;6.82;;
18146;SDS011;9199;48.832;9.182;2023-06-26T05:43:16;11.05;;;6.68;;
18146;SDS011;9199;48.832;9.182;2023-06-26T05:45:46;11.67;;;6.87;;
18146;SDS011;9199;48.832;9.182;2023-06-26T05:48:12;11.65;;;7.07;;
18146;SDS011;9199;48.832;9.182;2023-06-26T05:50:39;11.80;;;7.10;;
18146;SDS011;9199;48.832;9.182;2023-06-26T05:53:08;10.38;;;6.65;;
18146;SDS011;9199;48.832;9.182;2023-06-26T05:55:36;10.85;;;6.90;;
18146;SDS011;9199;48.832;9.182;2023-06-26T05:58:04;10.53;;;6.90;;
18146;SDS011;9199;48.832;9.182;2023-06-26T06:00:33;10.32;;;6.70;;
18146;SDS011;9199;48.832;9.182;2023-06-26T06:03:00;12.75;;;7.13;;
18146;SDS011;9199;48.832;9.182;2023-06-26T06:05:27;9.82;;;6.82;;
18146;SDS011;9199;48.832;9.182;2023-06-26T06:07:53;12.50;;;6.78;;
18146;SDS011;9199;48.832;9.182;2023-06-26T06:10:20;12.97;;;6.77;;
18146;SDS011;9199;48.832;9.182;2023-06-26T06:12:47;10.38;;;6.80;;
18146;SDS011;9199;48.832;9.182;2023-06-26T06:15:13;12.52;;;7.20;;
18146;SDS011;9199;48.832;9.182;2023-06-26T06:17:41;12.02;;;7.28;;
18146;SDS011;9199;48.832;9.182;2023-06-26T06:20:08;13.15;;;6.63;;
18146;SDS011;9199;48.832;9.182;2023-06-26T06:22:36;14.40;;;6.80;;
18146;SDS011;9199;48.832;9.182;2023-06-26T06:25:03;11.48;;;6.30;;
18146;SDS011;9199;48.832;9.182;2023-06-26T06:27:30;11.32;;;7.13;;
18146;SDS011;9199;48.832;9.182;2023-06-26T06:29:57;11.23;;;6.60;;
18146;SDS011;9199;48.832;9.182;2023-06-26T06:32:23;14.55;;;7.10;;
18146;SDS011;9199;48.832;9.182;2023-06-26T06:34:51;11.73;;;6.80;;
18146;SDS011;9199;48.832;9.182;2023-06-26T06:37:18;10.35;;;6.63;;
18146;SDS011;9199;48.832;9.182;2023-06-26T06:39:44;9.68;;;6.60;;
18146;SDS011;9199;48.832;9.182;2023-06-26T06:42:11;10.10;;;6.38;;
18146;SDS011;9199;48.832;9.182;2023-06-26T06:44:38;12.93;;;7.20;;
18146;SDS011;9199;48.832;9.182;2023-06-26T06:47:05;10.27;;;6.33;;
18146;SDS011;9199;48.832;9.182;2023-06-26T06:49:31;10.10;;;6.28;;
18146;SDS011;9199;48.832;9.182;2023-06-26T06:51:59;22.30;;;10.13;;
18146;SDS011;9199;48.832;9.182;2023-06-26T06:54:26;31.52;;;12.23;;
18146;SDS011;9199;48.832;9.182;2023-06-26T06:56:53;10.90;;;7.10;;
18146;SDS011;9199;48.832;9.182;2023-06-26T06:59:20;13.50;;;6.93;;
18146;SDS011;9199;48.832;9.182;2023-06-26T07:01:47;10.55;;;6.82;;
18146;SDS011;9199;48.832;9.182;2023-06-26T07:04:13;9.48;;;6.53;;
18146;SDS011;9199;48.832;9.182;2023-06-26T07:06:40;10.65;;;6.90;;
18146;SDS011;9199;48.832;9.182;2023-06-26T07:09:08;11.68;;;6.50;;
18146;SDS011;9199;48.832;9.182;2023-06-26T07:11:35;9.73;;;6.40;;
18146;SDS011;9199;48.832;9.182;2023-06-26T07:14:01;12.10;;;6.82;;
18146;SDS011;9199;48.832;9.182;2023-06-26T07:16:28;9.45;;;6.03;;
18146;SDS011;9199;48.832;9.182;2023-06-26T07:18:55;9.82;;;6.72;;
18146;SDS011;9199;48.832;9.182;2023-06-26T07:21:22;12.27;;;6.43;;
18146;SDS011;9199;48.832;9.182;2023-06-26T07:23:49;9.57;;;6.47;;
18146;SDS011;9199;48.832;9.182;2023-06-26T07:26:17;10.32;;;6.72;;
18146;SDS011;9199;48.832;9.182;2023-06-26T07:28:43;9.88;;;6.78;;
18146;SDS011;9199;48.832;9.182;2023-06-26T07:31:10;10.15;;;6.55;;
18146;SDS011;9199;48.832;9.182;2023-06-26T07:33:37;9.77;;;6.28;;
18146;SDS011;9199;48.832;9.182;2023-06-26T07:36:03;9.80;;;6.77;;
18146;SDS011;9199;48.832;9.182;2023-06-26T07:38:30;10.20;;;6.72;;
18146;SDS011;9199;48.832;9.182;2023-06-26T07:40:57;9.38;;;6.50;;
18146;SDS011;9199;48.832;9.182;2023-06-26T07:43:26;9.18;;;6.25;;
18146;SDS011;9199;48.832;9.182;2023-06-26T07:45:52;10.35;;;6.35;;
18146;SDS011;9199;48.832;9.182;2023-06-26T07:48:19;10.30;;;6.60;;
18146;SDS011;9199;48.832;9.182;2023-06-26T07:50:46;10.95;;;6.45;;
18146;SDS011;9199;48.832;9.182;2023-06-26T07:53:12;8.93;;;6.03;;
18146;SDS011;9199;48.832;9.182;2023-06-26T07:55:39;9.23;;;6.18;;
18146;SDS011;9199;48.832;9.182;2023-06-26T07:58:06;11.50;;;6.28;;
18146;SDS011;9199;48.832;9.182;2023-06-26T08:00:35;9.23;;;6.27;;
18146;SDS011;9199;48.832;9.182;2023-06-26T08:03:02;13.90;;;6.70;;
18146;SDS011;9199;48.832;9.182;2023-06-26T08:05:29;11.15;;;6.20;;
18146;SDS011;9199;48.832;9.182;2023-06-26T08:07:56;8.93;;;6.00;;
18146;SDS011;9199;48.832;9.182;2023-06-26T08:10:22;9.85;;;5.93;;
18146;SDS011;9199;48.832;9.182;2023-06-26T08:12:49;11.50;;;6.10;;
18146;SDS011;9199;48.832;9.182;2023-06-26T08:15:17;8.52;;;5.60;;
18146;SDS011;9199;48.832;9.182;2023-06-26T08:17:46;8.48;;;5.60;;
18146;SDS011;9199;48.832;9.182;2023-06-26T08:20:12;9.25;;;5.78;;
18146;SDS011;9199;48.832;9.182;2023-06-26T08:22:39;8.20;;;5.47;;
18146;SDS011;9199;48.832;9.182;2023-06-26T08:25:06;8.40;;;4.97;;
18146;SDS011;9199;48.832;9.182;2023-06-26T08:27:33;7.75;;;5.00;;
18146;SDS011;9199;48.832;9.182;2023-06-26T08:30:00;8.25;;;5.40;;
18146;SDS011;9199;48.832;9.182;2023-06-26T08:32:26;8.32;;;5.13;;
18146;SDS011;9199;48.832;9.182;2023-06-26T08:34:54;14.20;;;5.10;;
18146;SDS011;9199;48.832;9.182;2023-06-26T08:37:21;8.87;;;5.53;;
18146;SDS011;9199;48.832;9.182;2023-06-26T08:39:48;8.85;;;5.15;;
18146;SDS011;9199;48.832;9.182;2023-06-26T08:42:14;7.78;;;4.65;;
18146;SDS011;9199;48.832;9.182;2023-06-26T08:44:41;8.82;;;5.10;;
18146;SDS011;9199;48.832;9.182;2023-06-26T08:47:09;8.60;;;4.80;;
18146;SDS011;9199;48.832;9.182;2023-06-26T08:49:41;9.23;;;5.13;;
18146;SDS011;9199;48.832;9.182;2023-06-26T08:52:16;8.85;;;5.10;;
18146;SDS011;9199;48.832;9.182;2023-06-26T08:54:46;8.27;;;5.45;;
18146;SDS011;9199;48.832;9.182;2023-06-26T08:57:20;6.90;;;5.13;;
18146;SDS011;9199;48.832;9.182;2023-06-26T08:59:49;10.38;;;5.13;;
18146;SDS011;9199;48.832;9.182;2023-06-26T09:02:16;10.10;;;5.30;;
18146;SDS011;9199;48.832;9.182;2023-06-26T09:04:43;10.27;;;5.20;;
18146;SDS011;9199;48.832;9.182;2023-06-26T09:07:09;6.18;;;4.28;;
18146;SDS011;9199;48.832;9.182;2023-06-26T09:09:37;6.53;;;4.90;;
18146;SDS011;9199;48.832;9.182;2023-06-26T09:12:04;7.90;;;4.60;;
18146;SDS011;9199;48.832;9.182;2023-06-26T09:14:32;8.33;;;4.80;;
18146;SDS011;9199;48.832;9.182;2023-06-26T09:16:58;7.00;;;4.53;;
18146;SDS011;9199;48.832;9.182;2023-06-26T09:19:25;8.13;;;5.03;;
18146;SDS011;9199;48.832;9.182;2023-06-26T09:21:52;8.20;;;4.93;;
18146;SDS011;9199;48.832;9.182;2023-06-26T09:24:21;8.15;;;4.93;;
18146;SDS011;9199;48.832;9.182;2023-06-26T09:26:50;6.33;;;4.70;;
18146;SDS011;9199;48.832;9.182;2023-06-26T09:29:17;7.30;;;4.90;;
18146;SDS011;9199;48.832;9.182;2023-06-26T09:31:45;6.40;;;4.38;;
18146;SDS011;9199;48.832;9.182;2023-06-26T09:34:11;6.20;;;4.45;;
18146;SDS011;9199;48.832;9.182;2023-06-26T09:36:38;9.43;;;4.47;;
18146;SDS011;9199;48.832;9.182;2023-06-26T09:39:07;5.77;;;4.33;;
18146;SDS011;9199;48.832;9.182;2023-06-26T09:41:36;8.07;;;4.45;;
18146;SDS011;9199;48.832;9.182;2023-06-26T09:44:05;9.00;;;5.32;;
18146;SDS011;9199;48.832;9.182;2023-06-26T09:46:33;7.43;;;4.78;;
18146;SDS011;9199;48.832;9.182;2023-06-26T09:49:01;9.05;;;4.85;;
18146;SDS011;9199;48.832;9.182;2023-06-26T09:51:29;10.03;;;4.90;;
18146;SDS011;9199;48.832;9.182;2023-06-26T09:53:57;6.68;;;4.97;;
18146;SDS011;9199;48.832;9.182;2023-06-26T09:56:23;6.93;;;4.90;;
18146;SDS011;9199;48.832;9.182;2023-06-26T09:58:50;6.55;;;4.50;;
18146;SDS011;9199;48.832;9.182;2023-06-26T10:01:19;7.55;;;4.75;;
18146;SDS011;9199;48.832;9.182;2023-06-26T10:03:46;8.30;;;5.10;;
18146;SDS011;9199;48.832;9.182;2023-06-26T10:06:13;9.63;;;5.30;;
18146;SDS011;9199;48.832;9.182;2023-06-26T10:08:44;10.07;;;5.10;;
18146;SDS011;9199;48.832;9.182;2023-06-26T10:11:13;7.95;;;5.07;;
18146;SDS011;9199;48.832;9.182;2023-06-26T10:13:45;8.48;;;5.30;;
18146;SDS011;9199;48.832;9.182;2023-06-26T10:16:13;7.10;;;5.27;;
18146;SDS011;9199;48.832;9.182;2023-06-26T10:18:47;9.80;;;5.10;;
18146;SDS011;9199;48.832;9.182;2023-06-26T10:21:17;7.65;;;5.55;;
18146;SDS011;9199;48.832;9.182;2023-06-26T10:23:44;8.52;;;5.72;;
18146;SDS011;9199;48.832;9.182;2023-06-26T10:26:11;7.97;;;5.47;;
18146;SDS011;9199;48.832;9.182;2023-06-26T10:28:39;8.73;;;5.30;;
18146;SDS011;9199;48.832;9.182;2023-06-26T10:31:07;10.23;;;5.63;;
18146;SDS011;9199;48.832;9.182;2023-06-26T10:33:35;11.02;;;5.50;;
18146;SDS011;9199;48.832;9.182;2023-06-26T10:36:14;16.83;;;6.00;;
18146;SDS011;9199;48.832;9.182;2023-06-26T10:38:48;8.40;;;5.70;;
18146;SDS011;9199;48.832;9.182;2023-06-26T10:41:14;6.73;;;5.60;;
18146;SDS011;9199;48.832;9.182;2023-06-26T10:43:48;7.78;;;5.60;;
18146;SDS011;9199;48.832;9.182;2023-06-26T10:46:15;9.27;;;5.68;;
18146;SDS011;9199;48.832;9.182;2023-06-26T10:48:56;7.68;;;5.93;;
18146;SDS011;9199;48.832;9.182;2023-06-26T10:51:25;10.57;;;5.65;;
18146;SDS011;9199;48.832;9.182;2023-06-26T10:53:55;7.03;;;5.60;;
18146;SDS011;9199;48.832;9.182;2023-06-26T10:59:11;9.18;;;5.47;;
18146;SDS011;9199;48.832;9.182;2023-06-26T11:01:40;8.65;;;5.85;;
18146;SDS011;9199;48.832;9.182;2023-06-26T11:04:08;9.45;;;5.75;;
18146;SDS011;9199;48.832;9.182;2023-06-26T11:06:38;8.37;;;5.63;;
18146;SDS011;9199;48.832;9.182;2023-06-26T11:09:08;9.93;;;5.85;;
18146;SDS011;9199;48.832;9.182;2023-06-26T11:14:29;6.85;;;5.70;;
18146;SDS011;9199;48.832;9.182;2023-06-26T11:16:57;10.10;;;6.13;;
18146;SDS011;9199;48.832;9.182;2023-06-26T11:19:25;9.47;;;5.70;;
18146;SDS011;9199;48.832;9.182;2023-06-26T11:21:54;8.25;;;5.80;;
18146;SDS011;9199;48.832;9.182;2023-06-26T11:24:25;9.23;;;5.85;;
18146;SDS011;9199;48.832;9.182;2023-06-26T11:26:52;9.30;;;5.72;;
18146;SDS011;9199;48.832;9.182;2023-06-26T11:29:19;7.68;;;5.50;;
18146;SDS011;9199;48.832;9.182;2023-06-26T11:31:46;15.77;;;5.90;;
18146;SDS011;9199;48.832;9.182;2023-06-26T11:34:13;8.70;;;5.47;;
18146;SDS011;9199;48.832;9.182;2023-06-26T11:36:41;9.75;;;5.55;;
18146;SDS011;9199;48.832;9.182;2023-06-26T11:39:12;9.98;;;5.28;;
18146;SDS011;9199;48.832;9.182;2023-06-26T11:41:39;8.50;;;5.22;;
18146;SDS011;9199;48.832;9.182;2023-06-26T11:44:07;9.47;;;5.67;;
18146;SDS011;9199;48.832;9.182;2023-06-26T11:46:34;6.82;;;5.35;;
18146;SDS011;9199;48.832;9.182;2023-06-26T11:49:02;9.30;;;5.47;;
18146;SDS011;9199;48.832;9.182;2023-06-26T11:51:29;9.27;;;5.38;;
18146;SDS011;9199;48.832;9.182;2023-06-26T11:53:55;9.07;;;5.20;;
18146;SDS011;9199;48.832;9.182;2023-06-26T11:56:24;9.00;;;5.40;;
18146;SDS011;9199;48.832;9.182;2023-06-26T11:58:58;8.73;;;5.40;;
18146;SDS011;9199;48.832;9.182;2023-06-26T12:01:27;13.18;;;5.65;;
18146;SDS011;9199;48.832;9.182;2023-06-26T12:03:58;8.57;;;5.50;;
18146;SDS011;9199;48.832;9.182;2023-06-26T12:06:27;11.48;;;5.68;;
18146;SDS011;9199;48.832;9.182;2023-06-26T12:08:55;7.20;;;5.60;;
18146;SDS011;9199;48.832;9.182;2023-06-26T12:11:22;10.20;;;5.53;;
18146;SDS011;9199;48.832;9.182;2023-06-26T12:13:51;8.40;;;5.70;;
18146;SDS011;9199;48.832;9.182;2023-06-26T12:16:18;11.00;;;5.93;;
18146;SDS011;9199;48.832;9.182;2023-06-26T12:18:45;10.43;;;5.43;;
18146;SDS011;9199;48.832;9.182;2023-06-26T12:21:27;7.37;;;5.43;;
18146;SDS011;9199;48.832;9.182;2023-06-26T12:23:57;8.60;;;5.50;;
18146;SDS011;9199;48.832;9.182;2023-06-26T12:26:26;12.35;;;5.93;;
18146;SDS011;9199;48.832;9.182;2023-06-26T12:28:53;6.82;;;5.30;;
18146;SDS011;9199;48.832;9.182;2023-06-26T12:31:27;7.20;;;5.22;;
18146;SDS011;9199;48.832;9.182;2023-06-26T12:33:53;6.87;;;5.10;;
18146;SDS011;9199;48.832;9.182;2023-06-26T12:36:20;8.05;;;5.43;;
18146;SDS011;9199;48.832;9.182;2023-06-26T12:38:48;9.95;;;5.22;;
18146;SDS011;9199;48.832;9.182;2023-06-26T12:41:15;8.68;;;5.70;;
18146;SDS011;9199;48.832;9.182;2023-06-26T12:43:43;9.10;;;5.47;;
18146;SDS011;9199;48.832;9.182;2023-06-26T12:46:10;8.13;;;5.40;;
18146;SDS011;9199;48.832;9.182;2023-06-26T12:48:37;9.27;;;5.63;;
18146;SDS011;9199;48.832;9.182;2023-06-26T12:51:08;8.88;;;5.70;;
18146;SDS011;9199;48.832;9.182;2023-06-26T12:53:35;7.10;;;5.30;;
18146;SDS011;9199;48.832;9.182;2023-06-26T12:56:04;7.20;;;5.18;;
18146;SDS011;9199;48.832;9.182;2023-06-26T12:58:31;10.30;;;5.97;;
18146;SDS011;9199;48.832;9.182;2023-06-26T13:00:59;9.23;;;5.70;;
18146;SDS011;9199;48.832;9.182;2023-06-26T13:03:29;7.00;;;5.13;;
18146;SDS011;9199;48.832;9.182;2023-06-26T13:05:55;7.00;;;5.38;;
18146;SDS011;9199;48.832;9.182;2023-06-26T13:08:22;9.75;;;5.50;;
18146;SDS011;9199;48.832;9.182;2023-06-26T13:10:49;8.73;;;5.17;;
18146;SDS011;9199;48.832;9.182;2023-06-26T13:13:16;7.07;;;4.70;;
18146;SDS011;9199;48.832;9.182;2023-06-26T13:15:42;8.80;;;5.30;;
18146;SDS011;9199;48.832;9.182;2023-06-26T13:18:11;7.47;;;5.15;;
18146;SDS011;9199;48.832;9.182;2023-06-26T13:20:37;8.73;;;5.03;;
18146;SDS011;9199;48.832;9.182;2023-06-26T13:23:04;7.23;;;4.57;;
18146;SDS011;9199;48.832;9.182;2023-06-26T13:25:30;7.78;;;4.70;;
18146;SDS011;9199;48.832;9.182;2023-06-26T13:27:57;10.13;;;4.72;;
18146;SDS011;9199;48.832;9.182;2023-06-26T13:30:24;7.35;;;4.38;;
18146;SDS011;9199;48.832;9.182;2023-06-26T13:32:51;7.05;;;4.47;;
18146;SDS011;9199;48.832;9.182;2023-06-26T13:35:19;6.10;;;4.10;;
18146;SDS011;9199;48.832;9.182;2023-06-26T13:37:46;8.45;;;4.70;;
18146;SDS011;9199;48.832;9.182;2023-06-26T13:40:13;7.32;;;4.40;;
18146;SDS011;9199;48.832;9.182;2023-06-26T13:42:40;7.80;;;4.30;;
18146;SDS011;9199;48.832;9.182;2023-06-26T13:45:07;9.43;;;4.30;;
18146;SDS011;9199;48.832;9.182;2023-06-26T13:47:34;7.30;;;4.20;;
18146;SDS011;9199;48.832;9.182;2023-06-26T13:50:03;8.48;;;4.20;;
18146;SDS011;9199;48.832;9.182;2023-06-26T13:52:32;6.95;;;4.05;;
18146;SDS011;9199;48.832;9.182;2023-06-26T13:54:59;7.85;;;4.20;;
18146;SDS011;9199;48.832;9.182;2023-06-26T13:57:25;7.70;;;4.28;;
18146;SDS011;9199;48.832;9.182;2023-06-26T13:59:53;7.03;;;4.17;;
18146;SDS011;9199;48.832;9.182;2023-06-26T14:02:20;11.30;;;4.10;;
18146;SDS011;9199;48.832;9.182;2023-06-26T14:04:46;6.63;;;3.97;;
18146;SDS011;9199;48.832;9.182;2023-06-26T14:07:13;7.10;;;3.60;;
18146;SDS011;9199;48.832;9.182;2023-06-26T14:09:41;6.60;;;3.88;;
18146;SDS011;9199;48.832;9.182;2023-06-26T14:12:08;7.73;;;3.50;;
18146;SDS011;9199;48.832;9.182;2023-06-26T14:14:35;6.95;;;3.50;;
18146;SDS011;9199;48.832;9.182;2023-06-26T14:17:02;8.02;;;3.80;;
18146;SDS011;9199;48.832;9.182;2023-06-26T14:19:30;8.55;;;3.30;;
18146;SDS011;9199;48.832;9.182;2023-06-26T14:21:56;7.10;;;3.10;;
18146;SDS011;9199;48.832;9.182;2023-06-26T14:24:24;6.50;;;3.33;;
18146;SDS011;9199;48.832;9.182;2023-06-26T14:26:52;6.53;;;3.08;;
18146;SDS011;9199;48.832;9.182;2023-06-26T14:29:19;6.88;;;3.30;;
18146;SDS011;9199;48.832;9.182;2023-06-26T14:31:46;6.55;;;3.17;;
18146;SDS011;9199;48.832;9.182;2023-06-26T14:34:13;6.80;;;3.10;;
18146;SDS011;9199;48.832;9.182;2023-06-26T14:36:39;6.60;;;3.00;;
18146;SDS011;9199;48.832;9.182;2023-06-26T14:39:06;5.95;;;2.97;;
18146;SDS011;9199;48.832;9.182;2023-06-26T14:41:33;9.27;;;3.20;;
18146;SDS011;9199;48.832;9.182;2023-06-26T14:44:01;6.88;;;3.00;;
18146;SDS011;9199;48.832;9.182;2023-06-26T14:46:28;6.55;;;3.13;;
18146;SDS011;9199;48.832;9.182;2023-06-26T14:48:54;5.37;;;2.80;;
18146;SDS011;9199;48.832;9.182;2023-06-26T14:51:21;7.78;;;3.63;;
18146;SDS011;9199;48.832;9.182;2023-06-26T14:53:48;5.47;;;3.00;;
18146;SDS011;9199;48.832;9.182;2023-06-26T14:56:14;6.82;;;3.33;;
18146;SDS011;9199;48.832;9.182;2023-06-26T14:58:41;5.15;;;3.00;;
18146;SDS011;9199;48.832;9.182;2023-06-26T15:01:09;6.43;;;3.07;;